createdAt,value
2018-07-07T00:00:20.747Z,101073.23
2018-07-07T00:02:49.394Z,101076.62
2018-07-07T00:05:18.342Z,101073.52
2018-07-07T00:07:47.057Z,101077.53
2018-07-07T00:10:16.221Z,101065.73
2018-07-07T00:12:45.151Z,101061.73
2018-07-07T00:15:18.227Z,101062.08
2018-07-07T00:17:47.444Z,101063.28
2018-07-07T00:20:16.548Z,101063.17
2018-07-07T00:22:45.601Z,101065.48
2018-07-07T00:25:15.820Z,101071.54
2018-07-07T00:27:45.457Z,101076.81
2018-07-07T00:30:14.138Z,101076.18
2018-07-07T00:32:42.850Z,101068.97
2018-07-07T00:35:11.813Z,101066.61
2018-07-07T00:37:40.551Z,101070.44
2018-07-07T00:40:10.093Z,101067.41
2018-07-07T00:42:39.427Z,101068.40
2018-07-07T00:45:08.129Z,101064.39
2018-07-07T00:47:36.823Z,101072.20
2018-07-07T00:50:05.854Z,100903.31
2018-07-07T00:52:34.796Z,101075.78
2018-07-07T00:55:03.833Z,101083.94
2018-07-07T00:57:32.495Z,101079.08
2018-07-07T01:00:01.232Z,101073.91
2018-07-07T01:02:29.924Z,101076.58
2018-07-07T01:04:58.570Z,101076.34
2018-07-07T01:07:27.232Z,101072.55
2018-07-07T01:09:55.885Z,101067.13
2018-07-07T01:12:24.619Z,101071.63
2018-07-07T01:14:53.249Z,101075.28
2018-07-07T01:17:22.069Z,101082.42
2018-07-07T01:19:50.880Z,101079.03
2018-07-07T01:22:19.528Z,101080.82
2018-07-07T01:24:48.240Z,101078.64
2018-07-07T01:27:16.915Z,101080.16
2018-07-07T01:29:45.593Z,101081.14
2018-07-07T01:32:14.285Z,101077.97
2018-07-07T01:34:42.975Z,101080.86
2018-07-07T01:37:11.552Z,101080.38
2018-07-07T01:39:40.257Z,101090.66
2018-07-07T01:42:09.244Z,101085.95
2018-07-07T01:44:37.938Z,101089.11
2018-07-07T01:47:06.577Z,101096.19
2018-07-07T01:49:35.232Z,101089.23
2018-07-07T01:52:03.896Z,101090.78
2018-07-07T01:54:32.608Z,101084.59
2018-07-07T01:57:01.382Z,101092.40
2018-07-07T01:59:30.014Z,101087.27
2018-07-07T02:01:59.625Z,101083.58
2018-07-07T02:04:28.541Z,101085.34
2018-07-07T02:06:57.123Z,101087.25
2018-07-07T02:09:25.728Z,101083.45
2018-07-07T02:11:54.399Z,101081.61
2018-07-07T02:14:23.087Z,101085.58
2018-07-07T02:16:51.793Z,101077.42
2018-07-07T02:19:20.565Z,101079.17
2018-07-07T02:21:49.193Z,101076.28
2018-07-07T02:24:17.868Z,101072.73
2018-07-07T02:26:46.763Z,101079.97
2018-07-07T02:29:15.395Z,101075.89
2018-07-07T02:31:44.010Z,101085.61
2018-07-07T02:34:12.700Z,101084.76
2018-07-07T02:36:41.574Z,101080.21
2018-07-07T02:39:10.250Z,101075.01
2018-07-07T02:41:38.999Z,101079.38
2018-07-07T02:44:07.495Z,101079.55
2018-07-07T02:46:36.329Z,101081.91
2018-07-07T02:49:04.919Z,101081.69
2018-07-07T02:51:33.640Z,101081.86
2018-07-07T02:54:02.399Z,101089.08
2018-07-07T02:56:31.195Z,101087.42
2018-07-07T02:58:59.858Z,101089.66
2018-07-07T03:01:28.674Z,101088.89
2018-07-07T03:03:57.264Z,101090.05
2018-07-07T03:06:25.946Z,101091.39
2018-07-07T03:08:54.763Z,101095.84
2018-07-07T03:11:23.439Z,101095.05
2018-07-07T03:13:52.481Z,101096.82
2018-07-07T03:16:21.097Z,101094.02
2018-07-07T03:18:49.885Z,101095.27
2018-07-07T03:21:18.653Z,101099.55
2018-07-07T03:23:47.231Z,101098.64
2018-07-07T03:26:15.999Z,101096.86
2018-07-07T03:28:44.778Z,101101.27
2018-07-07T03:31:13.560Z,101100.56
2018-07-07T03:33:42.194Z,101102.34
2018-07-07T03:36:10.805Z,101101.23
2018-07-07T03:38:39.537Z,101106.44
2018-07-07T03:41:08.164Z,101104.61
2018-07-07T03:43:37.136Z,101112.32
2018-07-07T03:46:05.980Z,101108.39
2018-07-07T03:48:34.656Z,101111.06
2018-07-07T03:51:03.339Z,101112.37
2018-07-07T03:53:31.966Z,101115.12
2018-07-07T03:56:00.718Z,101113.42
2018-07-07T03:58:29.459Z,101114.77
2018-07-07T04:00:58.071Z,101122.20
2018-07-07T04:03:26.798Z,101115.52
2018-07-07T04:05:55.509Z,101108.58
2018-07-07T04:08:24.242Z,101110.27
2018-07-07T04:10:52.942Z,101110.22
2018-07-07T04:13:21.529Z,101111.51
2018-07-07T04:15:50.227Z,101110.52
2018-07-07T04:18:25.781Z,101111.17
2018-07-07T04:20:54.423Z,101112.16
2018-07-07T04:23:23.028Z,101112.86
2018-07-07T04:25:51.740Z,101109.27
2018-07-07T04:28:20.504Z,101106.45
2018-07-07T04:30:55.436Z,101108.01
2018-07-07T04:33:24.167Z,101116.77
2018-07-07T04:35:52.897Z,101111.09
2018-07-07T04:38:21.532Z,101113.49
2018-07-07T04:40:50.532Z,101108.64
2018-07-07T04:43:19.865Z,101110.47
2018-07-07T04:45:48.583Z,101117.85
2018-07-07T04:48:17.323Z,101119.05
2018-07-07T04:50:46.477Z,101118.63
2018-07-07T04:53:15.165Z,101117.66
2018-07-07T04:55:43.793Z,101117.44
2018-07-07T04:58:12.420Z,101121.58
2018-07-07T05:00:41.131Z,101120.69
2018-07-07T05:03:09.792Z,101118.64
2018-07-07T05:05:38.428Z,101118.16
2018-07-07T05:08:07.030Z,101122.73
2018-07-07T05:10:35.723Z,101121.23
2018-07-07T05:13:04.430Z,101119.97
2018-07-07T05:15:33.133Z,101117.20
2018-07-07T05:18:01.850Z,101119.74
2018-07-07T05:20:30.685Z,101123.28
2018-07-07T05:22:59.349Z,101116.52
2018-07-07T05:25:27.927Z,101119.44
2018-07-07T05:27:56.589Z,101114.18
2018-07-07T05:30:25.308Z,101118.63
2018-07-07T05:32:53.931Z,101116.80
2018-07-07T05:35:22.686Z,101119.70
2018-07-07T05:37:51.400Z,101115.56
2018-07-07T05:40:20.116Z,101115.95
2018-07-07T05:42:49.098Z,101121.13
2018-07-07T05:45:17.800Z,101116.77
2018-07-07T05:47:46.609Z,101116.53
2018-07-07T05:50:15.213Z,101119.70
2018-07-07T05:52:43.882Z,101115.05
2018-07-07T05:55:12.565Z,101111.10
2018-07-07T05:57:41.167Z,101113.66
2018-07-07T06:00:09.945Z,101114.84
2018-07-07T06:02:38.945Z,101110.05
2018-07-07T06:05:07.588Z,101114.55
2018-07-07T06:07:36.334Z,101116.20
2018-07-07T06:10:04.944Z,101120.59
2018-07-07T06:12:33.569Z,101105.52
2018-07-07T06:15:02.292Z,101115.03
2018-07-07T06:17:30.883Z,101113.20
2018-07-07T06:19:59.615Z,101115.73
2018-07-07T06:22:28.333Z,101119.61
2018-07-07T06:24:56.876Z,101110.89
2018-07-07T06:27:25.491Z,101122.03
2018-07-07T06:29:54.547Z,101121.31
2018-07-07T06:32:23.351Z,101115.98
2018-07-07T06:34:52.082Z,101115.78
2018-07-07T06:37:20.981Z,101122.02
2018-07-07T06:39:49.542Z,101119.08
2018-07-07T06:42:18.145Z,101115.04
2018-07-07T06:44:46.855Z,101112.23
2018-07-07T06:47:15.438Z,101118.94
2018-07-07T06:49:44.232Z,101113.66
2018-07-07T06:52:12.926Z,101120.80
2018-07-07T06:54:41.581Z,101118.11
2018-07-07T06:57:10.209Z,101112.16
2018-07-07T06:59:38.950Z,101113.88
2018-07-07T07:02:07.698Z,101120.23
2018-07-07T07:04:36.349Z,101120.09
2018-07-07T07:07:05.031Z,101114.56
2018-07-07T07:09:33.749Z,101108.88
2018-07-07T07:12:02.462Z,101111.88
2018-07-07T07:14:31.137Z,101110.41
2018-07-07T07:16:59.764Z,101110.86
2018-07-07T07:19:28.470Z,101114.50
2018-07-07T07:21:57.378Z,101116.06
2018-07-07T07:24:26.000Z,101119.66
2018-07-07T07:26:54.611Z,101124.78
2018-07-07T07:29:23.266Z,101124.53
2018-07-07T07:31:51.989Z,101123.97
2018-07-07T07:34:20.601Z,101120.20
2018-07-07T07:36:49.640Z,101129.48
2018-07-07T07:39:18.306Z,101129.33
2018-07-07T07:41:47.113Z,101130.08
2018-07-07T07:44:15.733Z,101139.23
2018-07-07T07:46:44.411Z,101121.94
2018-07-07T07:49:13.148Z,101125.23
2018-07-07T07:51:42.130Z,101131.81
2018-07-07T07:54:10.778Z,101134.59
2018-07-07T07:56:39.675Z,101134.15
2018-07-07T07:59:08.395Z,101135.05
2018-07-07T08:01:37.012Z,101132.78
2018-07-07T08:04:05.787Z,101132.94
2018-07-07T08:06:34.496Z,101137.86
2018-07-07T08:09:03.134Z,101133.83
2018-07-07T08:11:31.894Z,101130.67
2018-07-07T08:14:00.658Z,101127.84
2018-07-07T08:16:29.478Z,101128.33
2018-07-07T08:18:58.146Z,101131.01
2018-07-07T08:21:26.753Z,101125.84
2018-07-07T08:23:56.154Z,101127.39
2018-07-07T08:26:24.782Z,101124.70
2018-07-07T08:28:53.850Z,101132.25
2018-07-07T08:31:22.696Z,101051.23
2018-07-07T08:33:51.318Z,101129.22
2018-07-07T08:36:20.020Z,101131.72
2018-07-07T08:38:49.691Z,101122.21
2018-07-07T08:41:18.487Z,101126.88
2018-07-07T08:43:47.254Z,101123.50
2018-07-07T08:46:15.860Z,101122.61
2018-07-07T08:48:44.485Z,101133.34
2018-07-07T08:51:13.190Z,101128.42
2018-07-07T08:53:42.161Z,101126.66
2018-07-07T08:56:10.829Z,101124.73
2018-07-07T08:58:39.571Z,101125.28
2018-07-07T09:01:08.212Z,101122.94
2018-07-07T09:03:36.974Z,101123.73
2018-07-07T09:06:05.964Z,101124.43
2018-07-07T09:08:34.619Z,101127.31
2018-07-07T09:11:03.308Z,101126.81
2018-07-07T09:13:32.084Z,101123.77
2018-07-07T09:16:00.736Z,101122.27
2018-07-07T09:18:29.544Z,101131.97
2018-07-07T09:20:58.230Z,101116.88
2018-07-07T09:23:26.893Z,101123.75
2018-07-07T09:25:55.500Z,101124.33
2018-07-07T09:28:24.157Z,101129.70
2018-07-07T09:30:52.815Z,101125.73
2018-07-07T09:33:21.621Z,101124.59
2018-07-07T09:35:50.256Z,101125.45
2018-07-07T09:38:19.184Z,101124.34
2018-07-07T09:40:47.871Z,101127.64
2018-07-07T09:43:16.633Z,101133.67
2018-07-07T09:45:45.394Z,101126.03
2018-07-07T09:48:14.040Z,101127.38
2018-07-07T09:50:42.683Z,101119.36
2018-07-07T09:53:11.325Z,101123.46
2018-07-07T09:55:40.133Z,101132.93
2018-07-07T09:58:08.917Z,101134.10
2018-07-07T10:00:42.470Z,101136.77
2018-07-07T10:03:17.702Z,101132.24
2018-07-07T10:05:46.356Z,101145.81
2018-07-07T10:08:15.005Z,101140.46
2018-07-07T10:10:44.110Z,101142.65
2018-07-07T10:13:12.734Z,101142.15
2018-07-07T10:15:41.470Z,101147.41
2018-07-07T10:18:10.153Z,101148.08
2018-07-07T10:20:38.983Z,101149.27
2018-07-07T10:23:07.747Z,101148.64
2018-07-07T10:25:36.429Z,101154.67
2018-07-07T10:28:05.010Z,101157.38
2018-07-07T10:30:33.780Z,101157.70
2018-07-07T10:33:02.476Z,101161.41
2018-07-07T10:35:31.301Z,101169.47
2018-07-07T10:38:00.081Z,101171.16
2018-07-07T10:40:28.795Z,101177.19
2018-07-07T10:42:57.450Z,101179.03
2018-07-07T10:45:26.155Z,101178.98
2018-07-07T10:47:54.858Z,101182.52
2018-07-07T10:50:23.500Z,101183.02
2018-07-07T10:52:52.343Z,101183.71
2018-07-07T10:55:21.155Z,101193.61
2018-07-07T10:57:49.980Z,101192.80
2018-07-07T11:00:24.918Z,101202.18
2018-07-07T11:02:53.617Z,101204.68
2018-07-07T11:05:22.525Z,101197.94
2018-07-07T11:07:51.173Z,101199.44
2018-07-07T11:10:20.113Z,101201.28
2018-07-07T11:12:48.662Z,101204.48
2018-07-07T11:15:17.277Z,101206.81
2018-07-07T11:17:46.107Z,101211.19
2018-07-07T11:20:14.804Z,101216.37
2018-07-07T11:22:43.447Z,101214.22
2018-07-07T11:25:12.036Z,101213.37
2018-07-07T11:27:40.760Z,101205.81
2018-07-07T11:30:09.373Z,101203.47
2018-07-07T11:32:38.199Z,101205.71
2018-07-07T11:35:06.885Z,101201.86
2018-07-07T11:37:35.483Z,101198.22
2018-07-07T11:40:04.198Z,101204.94
2018-07-07T11:42:32.887Z,101205.11
2018-07-07T11:45:01.511Z,101209.33
2018-07-07T11:47:30.194Z,101210.66
2018-07-07T11:49:59.039Z,101208.80
2018-07-07T11:52:27.796Z,101217.05
2018-07-07T11:54:56.469Z,101225.31
2018-07-07T11:57:25.111Z,101225.95
2018-07-07T11:59:53.845Z,101238.59
2018-07-07T12:02:22.462Z,101233.34
2018-07-07T12:04:51.454Z,101232.84
2018-07-07T12:07:20.003Z,101238.07
2018-07-07T12:09:48.795Z,101226.13
2018-07-07T12:12:23.874Z,101234.37
2018-07-07T12:14:52.939Z,101240.94
2018-07-07T12:17:21.623Z,101236.89
2018-07-07T12:19:50.207Z,101232.84
2018-07-07T12:22:18.868Z,101230.43
2018-07-07T12:24:47.539Z,101246.64
2018-07-07T12:27:16.185Z,101239.70
2018-07-07T12:29:44.851Z,101241.19
2018-07-07T12:32:13.647Z,101240.77
2018-07-07T12:34:42.461Z,101242.33
2018-07-07T12:37:11.142Z,101235.03
2018-07-07T12:39:40.008Z,101251.97
2018-07-07T12:42:08.752Z,101259.36
2018-07-07T12:44:37.813Z,101260.53
2018-07-07T12:47:06.745Z,101259.42
2018-07-07T12:49:35.323Z,101263.28
2018-07-07T12:52:04.073Z,101263.58
2018-07-07T12:54:32.805Z,101262.23
2018-07-07T12:57:01.417Z,101273.56
2018-07-07T12:59:30.133Z,101281.84
2018-07-07T13:01:58.816Z,101277.70
2018-07-07T13:04:27.444Z,101282.09
2018-07-07T13:06:56.100Z,101284.86
2018-07-07T13:09:25.067Z,101290.59
2018-07-07T13:11:53.748Z,101286.67
2018-07-07T13:14:22.564Z,101299.30
2018-07-07T13:16:51.443Z,101303.78
2018-07-07T13:19:20.086Z,101306.09
2018-07-07T13:21:48.761Z,101311.91
2018-07-07T13:24:17.483Z,101315.41
2018-07-07T13:26:46.231Z,101322.16
2018-07-07T13:29:14.877Z,101320.56
2018-07-07T13:31:43.720Z,101321.66
2018-07-07T13:34:12.408Z,101328.46
2018-07-07T13:36:41.304Z,101329.86
2018-07-07T13:39:10.131Z,101319.41
2018-07-07T13:41:38.885Z,101331.55
2018-07-07T13:44:07.515Z,101321.83
2018-07-07T13:46:36.205Z,101327.99
2018-07-07T13:49:04.885Z,101334.54
2018-07-07T13:51:33.634Z,101320.16
2018-07-07T13:54:02.322Z,101325.80
2018-07-07T13:56:30.975Z,101324.92
2018-07-07T13:58:59.761Z,101333.81
2018-07-07T14:01:28.556Z,101337.25
2018-07-07T14:03:57.138Z,101335.16
2018-07-07T14:06:25.728Z,101344.28
2018-07-07T14:08:54.543Z,101336.73
2018-07-07T14:11:23.307Z,101331.38
2018-07-07T14:13:52.104Z,101354.41
2018-07-07T14:16:20.771Z,101217.63
2018-07-07T14:18:49.429Z,101350.88
2018-07-07T14:21:18.133Z,101350.06
2018-07-07T14:23:46.729Z,101354.17
2018-07-07T14:26:15.377Z,101353.72
2018-07-07T14:28:44.040Z,101351.56
2018-07-07T14:31:12.743Z,101361.17
2018-07-07T14:33:41.335Z,101353.15
2018-07-07T14:36:09.978Z,101369.59
2018-07-07T14:38:38.928Z,101365.65
2018-07-07T14:41:16.509Z,101367.52
2018-07-07T14:43:54.215Z,101373.16
2018-07-07T14:46:23.243Z,101370.65
2018-07-07T14:48:52.358Z,101372.76
2018-07-07T14:51:21.016Z,101380.98
2018-07-07T14:53:49.801Z,101368.73
2018-07-07T14:56:19.792Z,101372.05
2018-07-07T14:58:48.773Z,101371.98
2018-07-07T15:01:17.519Z,101373.69
2018-07-07T15:03:46.451Z,101370.55
2018-07-07T15:06:15.079Z,101375.64
2018-07-07T15:08:43.912Z,101370.77
2018-07-07T15:11:12.690Z,101376.84
2018-07-07T15:13:41.288Z,101377.60
2018-07-07T15:16:09.991Z,101382.89
2018-07-07T15:18:38.753Z,101387.22
2018-07-07T15:21:07.392Z,101393.27
2018-07-07T15:23:36.117Z,101391.41
2018-07-07T15:26:04.879Z,101389.94
2018-07-07T15:28:34.097Z,101384.65
2018-07-07T15:31:02.835Z,101376.84
2018-07-07T15:33:31.575Z,101378.11
2018-07-07T15:36:00.235Z,101384.98
2018-07-07T15:38:29.003Z,101382.74
2018-07-07T15:40:57.615Z,101386.73
2018-07-07T15:43:26.514Z,101388.06
2018-07-07T15:45:55.419Z,101395.41
2018-07-07T15:48:24.049Z,101388.33
2018-07-07T15:50:53.098Z,101386.14
2018-07-07T15:53:21.784Z,101384.25
2018-07-07T15:55:50.513Z,101377.81
2018-07-07T15:58:19.112Z,101382.13
2018-07-07T16:00:47.828Z,101381.49
2018-07-07T16:03:16.784Z,101381.99
2018-07-07T16:05:45.607Z,101391.33
2018-07-07T16:08:14.247Z,101393.00
2018-07-07T16:10:42.861Z,101393.93
2018-07-07T16:13:11.561Z,101404.50
2018-07-07T16:15:40.304Z,101405.37
2018-07-07T16:18:09.001Z,101406.02
2018-07-07T16:20:37.734Z,101406.22
2018-07-07T16:23:06.381Z,101404.30
2018-07-07T16:25:35.097Z,101411.70
2018-07-07T16:28:03.856Z,101415.17
2018-07-07T16:30:32.435Z,101411.66
2018-07-07T16:33:01.074Z,101419.20
2018-07-07T16:35:29.735Z,101416.25
2018-07-07T16:37:58.419Z,101414.70
2018-07-07T16:40:27.119Z,101419.03
2018-07-07T16:42:55.907Z,101412.61
2018-07-07T16:45:24.656Z,101417.64
2018-07-07T16:47:53.637Z,101415.24
2018-07-07T16:50:22.370Z,101426.24
2018-07-07T16:52:51.155Z,101431.20
2018-07-07T16:55:19.754Z,101430.70
2018-07-07T16:57:48.495Z,101426.47
2018-07-07T17:00:17.253Z,101429.86
2018-07-07T17:02:45.874Z,101432.95
2018-07-07T17:05:15.045Z,101438.84
2018-07-07T17:07:43.804Z,101439.64
2018-07-07T17:10:12.621Z,101437.40
2018-07-07T17:12:41.820Z,101442.45
2018-07-07T17:15:10.518Z,101439.28
2018-07-07T17:17:39.369Z,101444.09
2018-07-07T17:20:08.430Z,101441.41
2018-07-07T17:22:37.514Z,101439.45
2018-07-07T17:25:06.110Z,101438.38
2018-07-07T17:27:34.840Z,101439.00
2018-07-07T17:30:03.533Z,101446.13
2018-07-07T17:32:32.167Z,101444.56
2018-07-07T17:35:01.766Z,101446.39
2018-07-07T17:37:30.468Z,101441.53
2018-07-07T17:39:59.097Z,101445.55
2018-07-07T17:42:27.862Z,101440.36
2018-07-07T17:44:56.959Z,101446.20
2018-07-07T17:47:25.636Z,101443.44
2018-07-07T17:49:54.510Z,101444.50
2018-07-07T17:52:23.472Z,101451.95
2018-07-07T17:54:52.321Z,101454.99
2018-07-07T17:57:20.997Z,101450.22
2018-07-07T17:59:49.638Z,101453.30
2018-07-07T18:02:18.276Z,101442.67
2018-07-07T18:04:47.141Z,101446.13
2018-07-07T18:07:16.017Z,101451.61
2018-07-07T18:09:44.603Z,101457.02
2018-07-07T18:12:13.215Z,101452.66
2018-07-07T18:14:41.997Z,101449.70
2018-07-07T18:17:10.602Z,101453.09
2018-07-07T18:19:39.415Z,101454.91
2018-07-07T18:22:08.109Z,101463.69
2018-07-07T18:24:36.710Z,101460.62
2018-07-07T18:27:05.355Z,101459.16
2018-07-07T18:29:34.039Z,101456.25
2018-07-07T18:32:02.680Z,101460.48
2018-07-07T18:34:31.336Z,101465.34
2018-07-07T18:36:59.989Z,101472.23
2018-07-07T18:39:28.747Z,101464.13
2018-07-07T18:41:57.416Z,101467.03
2018-07-07T18:44:26.112Z,101464.22
2018-07-07T18:46:54.989Z,101461.19
2018-07-07T18:49:23.791Z,101467.25
2018-07-07T18:51:52.414Z,101464.71
2018-07-07T18:54:21.099Z,101470.50
2018-07-07T18:56:49.914Z,101470.98
2018-07-07T18:59:18.847Z,101464.63
2018-07-07T19:01:47.590Z,101475.47
2018-07-07T19:04:16.628Z,101475.47
2018-07-07T19:06:45.303Z,101480.33
2018-07-07T19:09:14.091Z,101476.58
2018-07-07T19:11:42.657Z,101472.56
2018-07-07T19:14:11.394Z,101473.55
2018-07-07T19:16:40.157Z,101474.79
2018-07-07T19:19:08.862Z,101476.65
2018-07-07T19:21:42.829Z,101482.32
2018-07-07T19:24:16.734Z,101485.16
2018-07-07T19:26:50.510Z,101490.28
2018-07-07T19:29:19.792Z,101494.78
2018-07-07T19:31:53.657Z,101496.97
2018-07-07T19:34:27.619Z,101507.79
2018-07-07T19:37:01.778Z,101502.44
2018-07-07T19:39:30.471Z,101501.40
2018-07-07T19:41:59.202Z,101503.91
2018-07-07T19:44:27.862Z,101504.63
2018-07-07T19:46:56.990Z,101505.48
2018-07-07T19:49:25.734Z,101502.50
2018-07-07T19:51:54.427Z,101511.08
2018-07-07T19:54:23.044Z,101506.52
2018-07-07T19:56:51.691Z,101508.34
2018-07-07T19:59:20.422Z,101503.48
2018-07-07T20:01:49.201Z,101504.95
2018-07-07T20:04:18.058Z,101500.02
2018-07-07T20:06:46.677Z,101510.72
2018-07-07T20:09:15.569Z,101502.46
2018-07-07T20:11:44.189Z,101505.03
2018-07-07T20:14:18.239Z,101502.36
2018-07-07T20:17:01.854Z,101498.12
2018-07-07T20:20:42.635Z,101494.89
2018-07-07T20:23:14.487Z,101504.14
2018-07-07T20:25:47.256Z,101499.56
2018-07-07T20:28:21.335Z,101506.38
2018-07-07T20:30:49.969Z,101509.66
2018-07-07T20:33:18.593Z,101518.17
2018-07-07T20:35:47.635Z,101521.08
2018-07-07T20:38:16.320Z,101518.94
2018-07-07T20:40:44.947Z,101526.00
2018-07-07T20:43:13.562Z,101529.32
2018-07-07T20:45:43.112Z,101528.23
2018-07-07T20:48:11.782Z,101536.66
2018-07-07T20:50:40.629Z,101528.17
2018-07-07T20:53:09.332Z,101532.83
2018-07-07T20:55:38.132Z,101537.08
2018-07-07T20:58:06.975Z,101541.83
2018-07-07T21:00:35.596Z,101546.92
2018-07-07T21:03:04.277Z,101548.17
2018-07-07T21:05:33.053Z,101547.81
2018-07-07T21:08:01.733Z,101547.93
2018-07-07T21:10:30.446Z,101546.72
2018-07-07T21:12:59.152Z,101546.23
2018-07-07T21:15:27.901Z,101545.17
2018-07-07T21:17:56.576Z,101552.59
2018-07-07T21:20:25.242Z,101547.73
2018-07-07T21:22:53.964Z,101553.20
2018-07-07T21:25:22.613Z,101551.50
2018-07-07T21:27:51.276Z,101557.69
2018-07-07T21:30:20.072Z,101560.27
2018-07-07T21:32:48.665Z,101562.95
2018-07-07T21:35:17.295Z,101565.74
2018-07-07T21:37:46.006Z,101573.14
2018-07-07T21:40:14.801Z,101423.21
2018-07-07T21:42:43.649Z,101579.09
2018-07-07T21:45:12.335Z,101580.30
2018-07-07T21:47:41.042Z,101589.66
2018-07-07T21:50:09.740Z,101590.38
2018-07-07T21:52:38.431Z,101593.42
2018-07-07T21:55:07.360Z,101587.47
2018-07-07T21:57:41.327Z,101602.16
2018-07-07T22:00:10.068Z,101597.55
2018-07-07T22:02:44.018Z,101587.14
2018-07-07T22:05:17.738Z,101593.20
2018-07-07T22:07:46.385Z,101602.06
2018-07-07T22:10:15.139Z,101597.33
2018-07-07T22:12:44.046Z,101603.89
2018-07-07T22:15:12.975Z,101600.97
2018-07-07T22:17:41.689Z,101598.19
2018-07-07T22:20:10.484Z,101603.77
2018-07-07T22:22:39.256Z,101606.92
2018-07-07T22:25:08.016Z,101604.89
2018-07-07T22:27:36.756Z,101615.93
2018-07-07T22:30:05.458Z,101612.69
2018-07-07T22:32:39.289Z,101602.64
2018-07-07T22:35:13.094Z,101611.47
2018-07-07T22:37:41.889Z,101612.31
2018-07-07T22:40:10.544Z,101617.41
2018-07-07T22:42:39.360Z,101616.59
2018-07-07T22:45:08.176Z,101606.39
2018-07-07T22:47:36.842Z,101613.07
2018-07-07T22:50:05.495Z,101622.53
2018-07-07T22:52:34.263Z,101623.62
2018-07-07T22:55:02.910Z,101619.61
2018-07-07T22:57:31.677Z,101618.52
2018-07-07T23:00:00.339Z,101618.52
2018-07-07T23:02:29.429Z,101618.16
2018-07-07T23:04:58.508Z,101615.00
2018-07-07T23:07:27.167Z,101617.30
2018-07-07T23:09:55.878Z,101620.09
2018-07-07T23:12:24.472Z,101620.73
2018-07-07T23:14:53.209Z,101620.96
2018-07-07T23:17:21.890Z,101629.57
2018-07-07T23:19:50.616Z,101621.34
2018-07-07T23:22:28.263Z,101626.80
2018-07-07T23:24:57.251Z,101624.98
2018-07-07T23:27:25.932Z,101626.57
2018-07-07T23:29:54.648Z,101625.61
2018-07-07T23:32:23.222Z,101630.69
2018-07-07T23:34:51.863Z,101628.41
2018-07-07T23:37:20.502Z,101626.61
2018-07-07T23:39:49.138Z,101634.37
2018-07-07T23:42:17.854Z,101638.23
2018-07-07T23:44:46.577Z,101635.95
2018-07-07T23:47:15.128Z,101638.73
2018-07-07T23:49:43.889Z,101643.80
2018-07-07T23:52:12.484Z,101641.88
2018-07-07T23:54:41.253Z,101639.22
2018-07-07T23:57:09.952Z,101636.92
2018-07-07T23:59:38.607Z,101639.20
